Terminal Aerodrome Forecast
Issued by NWS Bismarck, ND

Home | Current Version | Previous Version | Text Only | Print | Product List | Glossary Off
Versions: 1 2 3 4 5 6 7 8 9 10 11 12 13 14 15 16 17 18 19

000
FTUS43 KBIS 060638 AAA
TAFBIS
TAF AMD
KBIS 060638Z 0607/0706 15011KT P6SM BKN070
      TEMPO 0608/0610 6SM -SHRA BR BKN014 OVC030
     FM061300 13010KT 5SM -SHRA BR BKN010 OVC030
     FM061600 15011KT 5SM SHRA OVC012=

USA.gov is the U.S. government's official web portal to all federal, state and local government web resources and services.